createdAt,value
2023-04-04T00:01:10.233Z,8.97
2023-04-04T00:03:38.790Z,8.89
2023-04-04T00:06:08.968Z,8.89
2023-04-04T00:08:38.696Z,8.92
2023-04-04T00:11:07.555Z,8.83
2023-04-04T00:13:36.119Z,8.90
2023-04-04T00:16:04.364Z,8.82
2023-04-04T00:18:32.757Z,8.90
2023-04-04T00:21:01.065Z,8.77
2023-04-04T00:23:29.383Z,8.74
2023-04-04T00:25:58.954Z,8.87
2023-04-04T00:28:27.126Z,8.86
2023-04-04T00:30:55.796Z,8.90
2023-04-04T00:33:24.008Z,8.84
2023-04-04T00:35:52.339Z,8.91
2023-04-04T00:38:20.653Z,8.93
2023-04-04T00:40:52.436Z,8.87
2023-04-04T00:43:22.184Z,8.95
2023-04-04T00:45:52.262Z,9.02
2023-04-04T00:48:25.095Z,9.06
2023-04-04T00:50:53.811Z,8.93
2023-04-04T00:53:22.306Z,8.95
2023-04-04T00:55:50.780Z,9.01
2023-04-04T00:58:19.610Z,9.11
2023-04-04T01:00:49.264Z,9.08
2023-04-04T01:03:17.749Z,9.13
2023-04-04T01:05:45.899Z,9.04
2023-04-04T01:08:14.219Z,9.03
2023-04-04T01:10:43.628Z,9.08
2023-04-04T01:13:13.577Z,9.07
2023-04-04T01:15:41.970Z,9.09
2023-04-04T01:18:14.573Z,9.10
2023-04-04T01:20:52.652Z,9.11
2023-04-04T01:23:22.875Z,8.99
2023-04-04T01:26:04.474Z,9.08
2023-04-04T01:28:32.773Z,9.14
2023-04-04T01:31:02.962Z,9.03
2023-04-04T01:33:38.050Z,9.03
2023-04-04T01:36:15.714Z,8.93
2023-04-04T01:38:53.307Z,9.08
2023-04-04T01:41:24.998Z,9.09
2023-04-04T01:43:53.841Z,9.11
2023-04-04T01:46:22.709Z,9.00
2023-04-04T01:48:50.905Z,9.04
2023-04-04T01:51:19.241Z,9.04
2023-04-04T01:53:47.446Z,8.92
2023-04-04T01:56:15.634Z,8.93
2023-04-04T01:58:45.889Z,9.06
2023-04-04T02:01:14.295Z,9.07
2023-04-04T02:03:42.755Z,9.09
2023-04-04T02:06:10.880Z,9.08
2023-04-04T02:08:39.594Z,9.10
2023-04-04T02:11:07.908Z,9.07
2023-04-04T02:13:38.590Z,9.10
2023-04-04T02:16:08.340Z,9.06
2023-04-04T02:18:37.162Z,9.18
2023-04-04T02:21:05.586Z,9.18
2023-04-04T02:23:34.072Z,9.13
2023-04-04T02:26:02.400Z,9.16
2023-04-04T02:28:31.483Z,9.17
2023-04-04T02:31:03.490Z,9.24
2023-04-04T02:33:33.091Z,9.26
2023-04-04T02:36:01.655Z,9.17
2023-04-04T02:38:30.026Z,9.14
2023-04-04T02:40:58.325Z,9.29
2023-04-04T02:43:26.598Z,9.27
2023-04-04T02:45:55.678Z,9.18
2023-04-04T02:48:24.436Z,9.22
2023-04-04T02:50:54.119Z,9.28
2023-04-04T02:53:22.462Z,9.27
2023-04-04T02:55:51.162Z,9.19
2023-04-04T02:58:19.379Z,9.17
2023-04-04T03:00:48.597Z,9.21
2023-04-04T03:03:17.600Z,9.16
2023-04-04T03:05:46.462Z,9.12
2023-04-04T03:08:16.354Z,9.11
2023-04-04T03:10:46.072Z,9.17
2023-04-04T03:13:14.258Z,9.19
2023-04-04T03:15:47.484Z,9.15
2023-04-04T03:18:15.966Z,9.07
2023-04-04T03:20:44.240Z,9.27
2023-04-04T03:23:12.558Z,9.29
2023-04-04T03:25:42.341Z,9.08
2023-04-04T03:28:11.477Z,9.16
2023-04-04T03:30:40.335Z,9.23
2023-04-04T03:33:09.923Z,9.36
2023-04-04T03:35:40.016Z,9.40
2023-04-04T03:38:08.595Z,9.45
2023-04-04T03:40:36.904Z,9.39
2023-04-04T03:43:10.089Z,9.48
2023-04-04T03:45:39.388Z,9.52
2023-04-04T03:48:08.052Z,9.55
2023-04-04T03:50:38.305Z,9.59
2023-04-04T03:53:06.636Z,9.63
2023-04-04T03:55:35.888Z,9.50
2023-04-04T03:58:04.157Z,9.47
2023-04-04T04:00:33.785Z,9.56
2023-04-04T04:03:02.094Z,9.64
2023-04-04T04:05:30.408Z,9.57
2023-04-04T04:07:58.669Z,9.55
2023-04-04T04:10:27.613Z,9.53
2023-04-04T04:12:56.051Z,9.60
2023-04-04T04:15:24.334Z,9.60
2023-04-04T04:17:54.388Z,9.61
2023-04-04T04:20:22.975Z,9.64
2023-04-04T04:22:53.856Z,9.68
2023-04-04T04:25:23.029Z,9.69
2023-04-04T04:27:51.243Z,9.51
2023-04-04T04:30:19.764Z,9.55
2023-04-04T04:32:50.370Z,9.59
2023-04-04T04:35:20.099Z,9.48
2023-04-04T04:37:50.128Z,9.53
2023-04-04T04:40:19.752Z,9.48
2023-04-04T04:42:50.722Z,9.53
2023-04-04T04:45:20.371Z,9.53
2023-04-04T04:47:48.781Z,9.65
2023-04-04T04:50:17.767Z,9.66
2023-04-04T04:52:47.378Z,9.60
2023-04-04T04:55:15.964Z,9.72
2023-04-04T04:57:44.287Z,9.64
2023-04-04T05:00:13.897Z,9.63
2023-04-04T05:02:42.237Z,9.73
2023-04-04T05:05:11.035Z,9.59
2023-04-04T05:07:39.392Z,9.67
2023-04-04T05:10:09.892Z,9.62
2023-04-04T05:12:38.370Z,9.54
2023-04-04T05:15:08.081Z,9.55
2023-04-04T05:17:37.545Z,9.71
2023-04-04T05:20:07.922Z,9.64
2023-04-04T05:22:36.030Z,9.67
2023-04-04T05:25:04.199Z,9.48
2023-04-04T05:27:33.718Z,9.53
2023-04-04T05:30:01.936Z,9.53
2023-04-04T05:32:30.302Z,9.48
2023-04-04T05:34:58.509Z,9.61
2023-04-04T05:37:26.740Z,9.49
2023-04-04T05:39:55.340Z,9.51
2023-04-04T05:42:23.532Z,9.45
2023-04-04T05:44:53.279Z,9.51
2023-04-04T05:47:22.242Z,9.57
2023-04-04T05:49:50.594Z,9.59
2023-04-04T05:52:18.819Z,9.52
2023-04-04T05:54:47.480Z,9.59
2023-04-04T05:57:15.663Z,9.64
2023-04-04T05:59:44.029Z,9.51
2023-04-04T06:02:13.658Z,9.56
2023-04-04T06:04:41.698Z,9.71
2023-04-04T06:07:09.828Z,9.58
2023-04-04T06:09:38.477Z,9.63
2023-04-04T06:12:06.839Z,9.80
2023-04-04T06:14:35.047Z,9.78
2023-04-04T06:17:03.534Z,9.88
2023-04-04T06:19:33.177Z,9.79
2023-04-04T06:22:01.222Z,9.95
2023-04-04T06:24:29.398Z,9.98
2023-04-04T06:26:57.537Z,9.95
2023-04-04T06:29:26.926Z,10.02
2023-04-04T06:31:55.383Z,10.13
2023-04-04T06:34:23.935Z,10.05
2023-04-04T06:36:53.476Z,10.16
2023-04-04T06:39:21.694Z,10.19
2023-04-04T06:41:49.839Z,10.04
2023-04-04T06:44:17.965Z,10.22
2023-04-04T06:46:46.189Z,10.32
2023-04-04T06:49:14.526Z,10.30
2023-04-04T06:51:42.924Z,10.14
2023-04-04T06:54:12.511Z,10.03
2023-04-04T06:56:40.687Z,10.15
2023-04-04T06:59:11.505Z,10.06
2023-04-04T07:01:40.220Z,10.05
2023-04-04T07:04:08.408Z,10.17
2023-04-04T07:06:37.326Z,10.24
2023-04-04T07:09:08.861Z,10.29
2023-04-04T07:11:40.534Z,10.22
2023-04-04T07:14:08.673Z,10.27
2023-04-04T07:16:38.177Z,10.23
2023-04-04T07:19:06.760Z,10.26
2023-04-04T07:21:34.894Z,10.18
2023-04-04T07:24:03.984Z,10.27
2023-04-04T07:26:32.112Z,10.36
2023-04-04T07:29:01.958Z,10.37
2023-04-04T07:31:30.663Z,10.34
2023-04-04T07:33:58.853Z,10.42
2023-04-04T07:36:26.966Z,10.57
2023-04-04T07:38:55.283Z,10.56
2023-04-04T07:41:24.364Z,10.53
2023-04-04T07:43:52.594Z,10.65
2023-04-04T07:46:23.277Z,10.56
2023-04-04T07:48:51.862Z,10.69
2023-04-04T07:51:24.255Z,10.67
2023-04-04T07:53:52.481Z,10.54
2023-04-04T07:56:21.856Z,10.52
2023-04-04T07:58:50.302Z,10.57
2023-04-04T08:01:18.445Z,10.55
2023-04-04T08:03:48.154Z,10.55
2023-04-04T08:06:16.433Z,10.90
2023-04-04T08:08:46.993Z,10.82
2023-04-04T08:11:15.490Z,10.94
2023-04-04T08:13:43.730Z,11.00
2023-04-04T08:16:11.931Z,10.98
2023-04-04T08:18:40.160Z,11.05
2023-04-04T08:21:09.743Z,11.14
2023-04-04T08:23:38.532Z,11.21
2023-04-04T08:26:06.774Z,11.37
2023-04-04T08:28:35.000Z,11.57
2023-04-04T08:31:03.614Z,11.46
2023-04-04T08:33:44.498Z,11.38
2023-04-04T08:36:16.830Z,11.08
2023-04-04T08:38:45.016Z,11.03
2023-04-04T08:41:16.042Z,11.12
2023-04-04T08:43:54.608Z,11.05
2023-04-04T08:46:24.469Z,11.10
2023-04-04T08:48:54.553Z,11.26
2023-04-04T08:51:26.327Z,11.22
2023-04-04T08:53:55.934Z,11.23
2023-04-04T08:56:25.151Z,11.26
2023-04-04T08:58:53.422Z,11.36
2023-04-04T09:01:23.427Z,11.51
2023-04-04T09:03:53.666Z,11.46
2023-04-04T09:06:24.579Z,11.49
2023-04-04T09:08:54.687Z,11.41
2023-04-04T09:11:25.236Z,11.24
2023-04-04T09:13:56.231Z,11.38
2023-04-04T09:16:24.778Z,11.33
2023-04-04T09:18:53.791Z,11.43
2023-04-04T09:21:23.842Z,11.43
2023-04-04T09:24:01.145Z,11.51
2023-04-04T09:26:29.392Z,11.45
2023-04-04T09:28:57.744Z,11.53
2023-04-04T09:31:27.420Z,11.53
2023-04-04T09:33:55.778Z,11.56
2023-04-04T09:36:28.049Z,11.66
2023-04-04T09:38:56.533Z,11.57
2023-04-04T09:41:27.723Z,11.57
2023-04-04T09:43:59.268Z,11.58
2023-04-04T09:46:28.165Z,11.58
2023-04-04T09:48:56.605Z,11.68
2023-04-04T09:51:35.867Z,11.86
2023-04-04T09:54:04.291Z,11.91
2023-04-04T09:56:33.287Z,11.96
2023-04-04T09:59:04.686Z,11.87
2023-04-04T10:01:34.706Z,11.90
2023-04-04T10:04:05.658Z,12.12
2023-04-04T10:06:38.013Z,12.02
2023-04-04T10:09:09.635Z,12.20
2023-04-04T10:11:38.971Z,12.20
2023-04-04T10:14:07.140Z,12.32
2023-04-04T10:16:40.204Z,12.28
2023-04-04T10:19:09.739Z,12.26
2023-04-04T10:21:40.074Z,12.44
2023-04-04T10:24:10.422Z,12.36
2023-04-04T10:26:38.792Z,12.40
2023-04-04T10:29:07.193Z,12.42
2023-04-04T10:31:43.868Z,12.49
2023-04-04T10:34:17.598Z,12.55
2023-04-04T10:36:51.527Z,13.38
2023-04-04T10:39:26.325Z,13.90
2023-04-04T10:41:56.815Z,14.12
2023-04-04T10:44:31.900Z,14.25
2023-04-04T10:47:05.553Z,14.34
2023-04-04T10:49:34.961Z,14.54
2023-04-04T10:52:05.897Z,14.51
2023-04-04T10:54:35.247Z,14.27
2023-04-04T10:57:04.277Z,14.46
2023-04-04T10:59:33.493Z,14.39
2023-04-04T11:02:07.046Z,14.58
2023-04-04T11:04:38.717Z,14.81
2023-04-04T11:07:19.443Z,14.97
2023-04-04T11:09:52.957Z,14.99
2023-04-04T11:12:29.162Z,15.09
2023-04-04T11:15:11.113Z,14.60
2023-04-04T11:17:51.367Z,14.69
2023-04-04T11:20:22.136Z,14.94
2023-04-04T11:23:03.571Z,14.69
2023-04-04T11:25:42.831Z,14.37
2023-04-04T11:28:16.187Z,14.43
2023-04-04T11:30:49.051Z,14.26
2023-04-04T11:33:32.362Z,14.07
2023-04-04T11:36:08.446Z,14.24
2023-04-04T11:38:42.241Z,14.25
2023-04-04T11:41:10.926Z,14.38
2023-04-04T11:43:46.874Z,14.42
2023-04-04T11:46:19.788Z,14.42
2023-04-04T11:48:49.889Z,14.45
2023-04-04T11:51:21.020Z,14.35
2023-04-04T11:53:50.980Z,14.43
2023-04-04T11:56:21.445Z,14.60
2023-04-04T11:58:56.060Z,14.97
2023-04-04T12:01:30.480Z,14.54
2023-04-04T12:04:02.543Z,14.47
2023-04-04T12:06:33.277Z,14.79
2023-04-04T12:09:04.194Z,14.70
2023-04-04T12:11:34.837Z,14.66
2023-04-04T12:14:03.308Z,14.59
2023-04-04T12:16:32.098Z,14.74
2023-04-04T12:19:03.358Z,14.65
2023-04-04T12:21:33.824Z,14.54
2023-04-04T12:24:03.906Z,14.42
2023-04-04T12:26:33.491Z,14.30
2023-04-04T12:29:02.510Z,14.27
2023-04-04T12:31:32.219Z,14.13
2023-04-04T12:34:01.229Z,14.06
2023-04-04T12:36:31.617Z,14.04
2023-04-04T12:39:01.957Z,13.84
2023-04-04T12:41:32.481Z,13.60
2023-04-04T12:44:03.583Z,13.35
2023-04-04T12:46:39.785Z,13.03
2023-04-04T12:49:10.346Z,12.69
2023-04-04T12:51:39.508Z,12.44
2023-04-04T12:54:08.941Z,12.21
2023-04-04T12:56:39.666Z,12.09
2023-04-04T12:59:11.681Z,11.97
2023-04-04T13:01:40.463Z,11.92
2023-04-04T13:04:09.940Z,11.75
2023-04-04T13:06:42.411Z,11.46
2023-04-04T13:09:19.173Z,11.23
2023-04-04T13:12:09.941Z,10.94
2023-04-04T13:15:00.571Z,10.60
2023-04-04T13:17:42.449Z,10.44
2023-04-04T13:20:11.597Z,10.34
2023-04-04T13:22:41.126Z,10.20
2023-04-04T13:25:10.892Z,10.18
2023-04-04T13:27:42.361Z,10.15
2023-04-04T13:30:11.686Z,10.24
2023-04-04T13:32:39.956Z,10.17
2023-04-04T13:35:09.414Z,10.19
2023-04-04T13:37:38.707Z,10.09
2023-04-04T13:40:08.421Z,10.00
2023-04-04T13:42:36.529Z,9.84
2023-04-04T13:45:07.472Z,9.90
2023-04-04T13:47:36.144Z,9.86
2023-04-04T13:50:04.998Z,9.80
2023-04-04T13:52:33.240Z,9.71
2023-04-04T13:55:02.521Z,9.67
2023-04-04T13:57:30.700Z,9.56
2023-04-04T13:59:58.935Z,9.52
2023-04-04T14:02:30.470Z,9.47
2023-04-04T14:04:59.009Z,9.45
2023-04-04T14:07:27.290Z,9.40
2023-04-04T14:09:55.589Z,9.35
2023-04-04T14:12:23.787Z,9.23
2023-04-04T14:14:52.148Z,9.19
2023-04-04T14:17:20.434Z,9.13
2023-04-04T14:19:50.621Z,9.09
2023-04-04T14:22:19.662Z,9.18
2023-04-04T14:24:47.922Z,9.20
2023-04-04T14:27:16.087Z,9.24
2023-04-04T14:29:44.514Z,9.24
2023-04-04T14:32:12.854Z,9.24
2023-04-04T14:34:41.273Z,9.27
2023-04-04T14:37:11.114Z,9.27
2023-04-04T14:39:39.776Z,9.18
2023-04-04T14:42:08.199Z,9.19
2023-04-04T14:44:36.605Z,9.22
2023-04-04T14:47:04.820Z,9.21
2023-04-04T14:49:33.134Z,9.18
2023-04-04T14:52:01.509Z,9.10
2023-04-04T14:54:31.177Z,9.13
2023-04-04T14:56:59.355Z,9.12
2023-04-04T14:59:28.301Z,9.12
2023-04-04T15:01:56.607Z,9.10
2023-04-04T15:04:24.825Z,9.14
2023-04-04T15:06:53.591Z,9.14
2023-04-04T15:09:21.957Z,9.15
2023-04-04T15:11:52.486Z,9.19
2023-04-04T15:14:23.044Z,9.26
2023-04-04T15:16:51.385Z,9.34
2023-04-04T15:19:19.581Z,9.38
2023-04-04T15:21:49.222Z,9.27
2023-04-04T15:24:17.327Z,9.24
2023-04-04T15:26:45.862Z,9.17
2023-04-04T15:29:15.877Z,9.20
2023-04-04T15:31:44.074Z,9.20
2023-04-04T15:34:12.421Z,9.15
2023-04-04T15:36:40.588Z,9.07
2023-04-04T15:39:09.032Z,9.06
2023-04-04T15:41:37.224Z,9.02
2023-04-04T15:44:05.891Z,8.92
2023-04-04T15:46:36.216Z,8.89
2023-04-04T15:49:04.606Z,8.85
2023-04-04T15:51:32.891Z,8.79
2023-04-04T15:54:01.225Z,8.70
2023-04-04T15:56:29.738Z,8.64
2023-04-04T15:58:58.260Z,8.68
2023-04-04T16:01:26.839Z,8.63
2023-04-04T16:03:56.592Z,8.62
2023-04-04T16:06:26.173Z,8.57
2023-04-04T16:08:54.476Z,8.55
2023-04-04T16:11:23.016Z,8.54
2023-04-04T16:13:51.181Z,8.53
2023-04-04T16:16:19.855Z,8.54
2023-04-04T16:18:48.106Z,8.46
2023-04-04T16:21:18.659Z,8.40
2023-04-04T16:23:46.846Z,8.39
2023-04-04T16:26:15.311Z,8.35
2023-04-04T16:28:44.850Z,8.31
2023-04-04T16:31:15.872Z,8.25
2023-04-04T16:33:44.157Z,8.24
2023-04-04T16:36:12.665Z,8.20
2023-04-04T16:38:42.219Z,8.12
2023-04-04T16:41:10.331Z,8.08
2023-04-04T16:43:38.551Z,8.03
2023-04-04T16:46:07.018Z,7.88
2023-04-04T16:48:35.203Z,7.77
2023-04-04T16:51:03.826Z,7.63
2023-04-04T16:53:31.967Z,7.48
2023-04-04T16:56:01.523Z,7.53
2023-04-04T16:58:29.718Z,7.45
2023-04-04T17:00:58.047Z,7.40
2023-04-04T17:03:26.268Z,7.34
2023-04-04T17:05:59.664Z,7.32
2023-04-04T17:19:13.821Z,7.26
2023-04-04T17:21:41.978Z,7.20
2023-04-04T17:24:10.053Z,7.17
2023-04-04T17:26:38.305Z,7.17
2023-04-04T17:29:06.484Z,7.14
2023-04-04T17:31:34.788Z,7.12
2023-04-04T17:34:03.518Z,7.07
2023-04-04T17:36:33.266Z,7.06
2023-04-04T17:39:01.469Z,7.00
2023-04-04T17:41:29.642Z,6.99
2023-04-04T17:43:57.789Z,6.95
2023-04-04T17:46:26.079Z,6.93
2023-04-04T17:48:54.857Z,6.90
2023-04-04T17:51:23.096Z,6.89
2023-04-04T17:53:52.862Z,6.95
2023-04-04T17:56:21.178Z,6.95
2023-04-04T17:58:50.749Z,6.98
2023-04-04T18:01:20.023Z,7.01
2023-04-04T18:03:48.516Z,7.02
2023-04-04T18:06:16.880Z,7.01
2023-04-04T18:08:45.381Z,7.12
2023-04-04T18:11:14.976Z,7.07
2023-04-04T18:13:44.240Z,7.14
2023-04-04T18:16:12.897Z,7.12
2023-04-04T18:18:41.509Z,7.13
2023-04-04T18:21:09.935Z,7.11
2023-04-04T18:23:38.073Z,7.10
2023-04-04T18:26:07.098Z,7.14
2023-04-04T18:28:36.674Z,7.07
2023-04-04T18:31:05.231Z,7.11
2023-04-04T18:33:35.260Z,7.08
2023-04-04T18:36:05.026Z,7.03
2023-04-04T18:38:36.329Z,7.10
2023-04-04T18:41:05.837Z,7.02
2023-04-04T18:43:34.375Z,7.01
2023-04-04T18:46:05.749Z,7.03
2023-04-04T18:48:34.805Z,7.00
2023-04-04T18:51:04.534Z,7.00
2023-04-04T18:53:33.195Z,7.02
2023-04-04T18:56:01.408Z,6.98
2023-04-04T18:58:30.665Z,6.99
2023-04-04T19:00:59.230Z,6.99
2023-04-04T19:03:28.869Z,6.98
2023-04-04T19:05:57.428Z,6.93
2023-04-04T19:08:26.068Z,6.95
2023-04-04T19:10:54.638Z,6.96
2023-04-04T19:13:22.862Z,6.94
2023-04-04T19:15:51.010Z,6.91
2023-04-04T19:18:19.245Z,6.89
2023-04-04T19:20:49.025Z,6.85
2023-04-04T19:23:17.471Z,6.82
2023-04-04T19:25:46.134Z,6.77
2023-04-04T19:28:14.298Z,6.76
2023-04-04T19:30:44.718Z,6.83
2023-04-04T19:33:13.838Z,6.79
2023-04-04T19:35:55.270Z,6.69
2023-04-04T19:38:26.130Z,6.69
2023-04-04T19:40:57.814Z,6.69
2023-04-04T19:43:27.033Z,6.69
2023-04-04T19:45:56.580Z,6.67
2023-04-04T19:48:46.229Z,6.65
2023-04-04T19:51:40.455Z,6.58
2023-04-04T19:54:15.091Z,6.55
2023-04-04T19:56:45.265Z,6.58
2023-04-04T19:59:46.591Z,6.66
2023-04-04T20:02:39.712Z,6.62
2023-04-04T20:05:54.528Z,6.58
2023-04-04T20:08:24.269Z,6.55
2023-04-04T20:10:57.125Z,6.56
2023-04-04T20:13:25.298Z,6.58
2023-04-04T20:16:01.423Z,6.57
2023-04-04T20:18:31.671Z,6.57
2023-04-04T20:21:10.928Z,6.57
2023-04-04T20:23:45.685Z,6.53
2023-04-04T20:26:17.302Z,6.54
2023-04-04T20:28:47.499Z,6.54
2023-04-04T20:31:18.441Z,6.55
2023-04-04T20:33:47.313Z,6.53
2023-04-04T20:36:33.067Z,6.55
2023-04-04T20:39:02.705Z,6.57
2023-04-04T20:41:30.815Z,6.52
2023-04-04T20:44:01.116Z,6.52
2023-04-04T20:46:33.886Z,6.48
2023-04-04T20:49:02.298Z,6.45
2023-04-04T20:51:31.666Z,6.46
2023-04-04T20:54:03.435Z,6.47
2023-04-04T20:56:47.695Z,6.45
2023-04-04T20:59:36.641Z,6.47
2023-04-04T21:02:12.384Z,6.43
2023-04-04T21:04:45.034Z,6.45
2023-04-04T21:07:37.993Z,6.42
2023-04-04T21:10:22.445Z,6.37
2023-04-04T21:12:51.949Z,6.36
2023-04-04T21:15:28.480Z,6.41
2023-04-04T21:17:57.349Z,6.43
2023-04-04T21:21:14.239Z,6.43
2023-04-04T21:23:47.228Z,6.41
2023-04-04T21:26:28.940Z,6.43
2023-04-04T21:28:58.389Z,6.42
2023-04-04T21:31:28.840Z,6.38
2023-04-04T21:33:58.452Z,6.34
2023-04-04T21:36:30.163Z,6.33
2023-04-04T21:38:59.934Z,6.36
2023-04-04T21:41:30.538Z,6.35
2023-04-04T21:44:01.057Z,6.35
2023-04-04T21:46:31.165Z,6.31
2023-04-04T21:48:59.263Z,6.35
2023-04-04T21:51:27.507Z,6.33
2023-04-04T21:53:56.462Z,6.29
2023-04-04T21:56:27.486Z,6.28
2023-04-04T21:58:57.233Z,6.28
2023-04-04T22:01:25.662Z,6.27
2023-04-04T22:03:54.312Z,6.24
2023-04-04T22:21:48.725Z,6.12
2023-04-04T22:24:18.548Z,6.14
2023-04-04T22:26:47.494Z,6.12
2023-04-04T22:29:16.052Z,6.08
2023-04-04T22:31:44.516Z,6.08
2023-04-04T22:34:14.977Z,6.06
2023-04-04T22:36:45.132Z,6.05
2023-04-04T22:39:16.321Z,6.05
2023-04-04T22:41:45.239Z,6.00
2023-04-04T22:44:16.763Z,6.02
2023-04-04T22:46:46.996Z,6.02
2023-04-04T22:49:17.974Z,6.01
2023-04-04T22:51:47.972Z,6.03
2023-04-04T22:54:17.132Z,6.02
2023-04-04T22:56:45.545Z,5.97
2023-04-04T22:59:17.560Z,5.96
2023-04-04T23:01:45.881Z,5.94
2023-04-04T23:04:14.090Z,5.91
2023-04-04T23:06:44.942Z,5.93
2023-04-04T23:09:14.673Z,5.95
2023-04-04T23:11:42.933Z,5.97
2023-04-04T23:14:15.390Z,5.96
2023-04-04T23:16:43.791Z,5.93
2023-04-04T23:19:12.249Z,5.91
2023-04-04T23:21:40.626Z,5.90
2023-04-04T23:24:08.957Z,5.91
2023-04-04T23:26:38.714Z,5.92
2023-04-04T23:29:07.439Z,5.92
2023-04-04T23:31:36.548Z,5.96
2023-04-04T23:34:04.876Z,5.98
2023-04-04T23:36:33.151Z,5.93
2023-04-04T23:39:01.297Z,5.95
2023-04-04T23:41:29.504Z,5.96
2023-04-04T23:43:59.053Z,5.93
2023-04-04T23:46:30.505Z,5.92
2023-04-04T23:48:58.663Z,5.92
2023-04-04T23:51:30.492Z,5.95
2023-04-04T23:53:58.716Z,5.91
2023-04-04T23:56:26.789Z,5.92
2023-04-04T23:58:55.317Z,5.92
